sensor_id;sensor_type;location;lat;lon;timestamp;temperature;humidity
12926;DHT22;6529;50.566;9.774;2022-08-21T00:01:41;17.40;99.90
12926;DHT22;6529;50.566;9.774;2022-08-21T00:04:08;17.40;99.90
12926;DHT22;6529;50.566;9.774;2022-08-21T00:06:34;17.40;99.90
12926;DHT22;6529;50.566;9.774;2022-08-21T00:09:01;17.50;99.90
12926;DHT22;6529;50.566;9.774;2022-08-21T00:11:27;17.50;99.90
12926;DHT22;6529;50.566;9.774;2022-08-21T00:13:53;17.50;99.90
12926;DHT22;6529;50.566;9.774;2022-08-21T00:16:19;17.50;99.90
12926;DHT22;6529;50.566;9.774;2022-08-21T00:18:45;17.40;99.90
12926;DHT22;6529;50.566;9.774;2022-08-21T00:21:12;17.40;99.90
12926;DHT22;6529;50.566;9.774;2022-08-21T00:23:38;17.40;99.90
12926;DHT22;6529;50.566;9.774;2022-08-21T00:26:04;17.40;99.90
12926;DHT22;6529;50.566;9.774;2022-08-21T00:28:30;17.40;99.90
12926;DHT22;6529;50.566;9.774;2022-08-21T00:30:57;17.40;99.90
12926;DHT22;6529;50.566;9.774;2022-08-21T00:33:23;17.30;99.90
12926;DHT22;6529;50.566;9.774;2022-08-21T00:35:49;17.20;99.90
12926;DHT22;6529;50.566;9.774;2022-08-21T00:38:15;17.20;99.90
12926;DHT22;6529;50.566;9.774;2022-08-21T00:40:47;17.30;99.90
12926;DHT22;6529;50.566;9.774;2022-08-21T00:43:18;17.30;99.90
12926;DHT22;6529;50.566;9.774;2022-08-21T00:45:44;17.20;99.90
12926;DHT22;6529;50.566;9.774;2022-08-21T00:48:09;17.00;99.90
12926;DHT22;6529;50.566;9.774;2022-08-21T00:50:40;16.80;99.90
12926;DHT22;6529;50.566;9.774;2022-08-21T00:53:07;16.80;99.90
12926;DHT22;6529;50.566;9.774;2022-08-21T00:55:36;16.80;99.90
12926;DHT22;6529;50.566;9.774;2022-08-21T00:58:04;16.80;99.90
12926;DHT22;6529;50.566;9.774;2022-08-21T01:00:34;16.70;99.90
12926;DHT22;6529;50.566;9.774;2022-08-21T01:03:07;16.80;99.90
12926;DHT22;6529;50.566;9.774;2022-08-21T01:05:33;16.70;99.90
12926;DHT22;6529;50.566;9.774;2022-08-21T01:07:59;16.80;99.90
12926;DHT22;6529;50.566;9.774;2022-08-21T01:10:25;16.70;99.90
12926;DHT22;6529;50.566;9.774;2022-08-21T01:12:52;16.60;99.90
12926;DHT22;6529;50.566;9.774;2022-08-21T01:15:19;16.50;99.90
12926;DHT22;6529;50.566;9.774;2022-08-21T01:17:46;16.50;99.90
12926;DHT22;6529;50.566;9.774;2022-08-21T01:20:12;16.50;99.90
12926;DHT22;6529;50.566;9.774;2022-08-21T01:22:38;16.60;99.90
12926;DHT22;6529;50.566;9.774;2022-08-21T01:25:06;16.60;99.90
12926;DHT22;6529;50.566;9.774;2022-08-21T01:27:32;16.80;99.90
12926;DHT22;6529;50.566;9.774;2022-08-21T01:30:07;16.80;99.90
12926;DHT22;6529;50.566;9.774;2022-08-21T01:32:34;16.80;99.90
12926;DHT22;6529;50.566;9.774;2022-08-21T01:34:59;16.60;99.90
12926;DHT22;6529;50.566;9.774;2022-08-21T01:37:26;16.70;99.90
12926;DHT22;6529;50.566;9.774;2022-08-21T01:39:51;16.60;99.90
12926;DHT22;6529;50.566;9.774;2022-08-21T01:42:17;16.50;99.90
12926;DHT22;6529;50.566;9.774;2022-08-21T01:44:43;16.60;99.90
12926;DHT22;6529;50.566;9.774;2022-08-21T01:47:11;16.40;99.90
12926;DHT22;6529;50.566;9.774;2022-08-21T01:49:38;16.20;99.90
12926;DHT22;6529;50.566;9.774;2022-08-21T01:52:05;16.00;99.90
12926;DHT22;6529;50.566;9.774;2022-08-21T01:54:31;16.00;99.90
12926;DHT22;6529;50.566;9.774;2022-08-21T01:56:58;16.10;99.90
12926;DHT22;6529;50.566;9.774;2022-08-21T01:59:24;16.10;99.90
12926;DHT22;6529;50.566;9.774;2022-08-21T02:01:50;16.00;99.90
12926;DHT22;6529;50.566;9.774;2022-08-21T02:04:16;16.00;99.90
12926;DHT22;6529;50.566;9.774;2022-08-21T02:06:42;16.10;99.90
12926;DHT22;6529;50.566;9.774;2022-08-21T02:09:09;16.00;99.90
12926;DHT22;6529;50.566;9.774;2022-08-21T02:11:36;15.90;99.90
12926;DHT22;6529;50.566;9.774;2022-08-21T02:14:08;16.00;99.90
12926;DHT22;6529;50.566;9.774;2022-08-21T02:16:35;15.80;99.90
12926;DHT22;6529;50.566;9.774;2022-08-21T02:19:00;15.60;99.90
12926;DHT22;6529;50.566;9.774;2022-08-21T02:21:26;15.70;99.90
12926;DHT22;6529;50.566;9.774;2022-08-21T02:23:52;15.70;99.90
12926;DHT22;6529;50.566;9.774;2022-08-21T02:26:17;15.80;99.90
12926;DHT22;6529;50.566;9.774;2022-08-21T02:28:43;15.80;99.90
12926;DHT22;6529;50.566;9.774;2022-08-21T02:31:09;15.70;99.90
12926;DHT22;6529;50.566;9.774;2022-08-21T02:33:35;15.70;99.90
12926;DHT22;6529;50.566;9.774;2022-08-21T02:36:02;15.60;99.90
12926;DHT22;6529;50.566;9.774;2022-08-21T02:38:31;15.60;99.90
12926;DHT22;6529;50.566;9.774;2022-08-21T02:40:59;15.50;99.90
12926;DHT22;6529;50.566;9.774;2022-08-21T02:43:26;15.40;99.90
12926;DHT22;6529;50.566;9.774;2022-08-21T02:45:54;15.40;99.90
12926;DHT22;6529;50.566;9.774;2022-08-21T02:48:22;15.40;99.90
12926;DHT22;6529;50.566;9.774;2022-08-21T02:50:57;15.40;99.90
12926;DHT22;6529;50.566;9.774;2022-08-21T02:53:23;15.30;99.90
12926;DHT22;6529;50.566;9.774;2022-08-21T02:55:51;15.20;99.90
12926;DHT22;6529;50.566;9.774;2022-08-21T02:58:25;15.20;99.90
12926;DHT22;6529;50.566;9.774;2022-08-21T03:00:51;15.10;99.90
12926;DHT22;6529;50.566;9.774;2022-08-21T03:03:17;15.10;99.90
12926;DHT22;6529;50.566;9.774;2022-08-21T03:05:43;15.10;99.90
12926;DHT22;6529;50.566;9.774;2022-08-21T03:08:12;15.10;99.90
12926;DHT22;6529;50.566;9.774;2022-08-21T03:10:40;15.10;99.90
12926;DHT22;6529;50.566;9.774;2022-08-21T03:13:06;15.10;99.90
12926;DHT22;6529;50.566;9.774;2022-08-21T03:15:32;15.10;99.90
12926;DHT22;6529;50.566;9.774;2022-08-21T03:17:58;15.00;99.90
12926;DHT22;6529;50.566;9.774;2022-08-21T03:20:26;14.90;99.90
12926;DHT22;6529;50.566;9.774;2022-08-21T03:22:53;14.90;99.90
12926;DHT22;6529;50.566;9.774;2022-08-21T03:25:19;15.00;99.90
12926;DHT22;6529;50.566;9.774;2022-08-21T03:27:45;15.00;99.90
12926;DHT22;6529;50.566;9.774;2022-08-21T03:30:13;15.30;99.90
12926;DHT22;6529;50.566;9.774;2022-08-21T03:32:38;15.50;99.90
12926;DHT22;6529;50.566;9.774;2022-08-21T03:35:04;15.50;99.90
12926;DHT22;6529;50.566;9.774;2022-08-21T03:37:30;15.40;99.90
12926;DHT22;6529;50.566;9.774;2022-08-21T03:39:56;15.30;99.90
12926;DHT22;6529;50.566;9.774;2022-08-21T03:42:22;15.40;99.90
12926;DHT22;6529;50.566;9.774;2022-08-21T03:44:48;15.40;99.90
12926;DHT22;6529;50.566;9.774;2022-08-21T03:47:14;15.40;99.90
12926;DHT22;6529;50.566;9.774;2022-08-21T03:49:40;15.40;99.90
12926;DHT22;6529;50.566;9.774;2022-08-21T03:52:06;15.30;99.90
12926;DHT22;6529;50.566;9.774;2022-08-21T03:54:32;15.30;99.90
12926;DHT22;6529;50.566;9.774;2022-08-21T03:56:57;15.30;99.90
12926;DHT22;6529;50.566;9.774;2022-08-21T03:59:23;15.10;99.90
12926;DHT22;6529;50.566;9.774;2022-08-21T04:01:54;15.10;99.90
12926;DHT22;6529;50.566;9.774;2022-08-21T04:04:20;15.00;99.90
12926;DHT22;6529;50.566;9.774;2022-08-21T04:06:46;14.90;99.90
12926;DHT22;6529;50.566;9.774;2022-08-21T04:09:11;14.80;99.90
12926;DHT22;6529;50.566;9.774;2022-08-21T04:11:37;14.70;99.90
12926;DHT22;6529;50.566;9.774;2022-08-21T04:14:03;14.60;99.90
12926;DHT22;6529;50.566;9.774;2022-08-21T04:16:30;14.70;99.90
12926;DHT22;6529;50.566;9.774;2022-08-21T04:18:56;14.70;99.90
12926;DHT22;6529;50.566;9.774;2022-08-21T04:21:22;14.80;99.90
12926;DHT22;6529;50.566;9.774;2022-08-21T04:23:49;14.70;99.90
12926;DHT22;6529;50.566;9.774;2022-08-21T04:26:15;14.70;99.90
12926;DHT22;6529;50.566;9.774;2022-08-21T04:28:41;14.60;99.90
12926;DHT22;6529;50.566;9.774;2022-08-21T04:31:07;14.50;99.90
12926;DHT22;6529;50.566;9.774;2022-08-21T04:33:33;14.40;99.90
12926;DHT22;6529;50.566;9.774;2022-08-21T04:35:58;14.50;99.90
12926;DHT22;6529;50.566;9.774;2022-08-21T04:38:24;14.50;99.90
12926;DHT22;6529;50.566;9.774;2022-08-21T04:40:51;14.60;99.90
12926;DHT22;6529;50.566;9.774;2022-08-21T04:43:18;14.60;99.90
12926;DHT22;6529;50.566;9.774;2022-08-21T04:45:47;14.70;99.90
12926;DHT22;6529;50.566;9.774;2022-08-21T04:48:15;14.70;99.90
12926;DHT22;6529;50.566;9.774;2022-08-21T04:51:16;14.70;99.90
12926;DHT22;6529;50.566;9.774;2022-08-21T04:53:58;14.70;99.90
12926;DHT22;6529;50.566;9.774;2022-08-21T04:56:45;14.60;99.90
12926;DHT22;6529;50.566;9.774;2022-08-21T04:59:19;14.60;99.90
12926;DHT22;6529;50.566;9.774;2022-08-21T05:01:46;14.60;99.90
12926;DHT22;6529;50.566;9.774;2022-08-21T05:04:16;14.70;99.90
12926;DHT22;6529;50.566;9.774;2022-08-21T05:06:45;14.60;99.90
12926;DHT22;6529;50.566;9.774;2022-08-21T05:09:15;14.60;99.90
12926;DHT22;6529;50.566;9.774;2022-08-21T05:11:41;14.70;99.90
12926;DHT22;6529;50.566;9.774;2022-08-21T05:14:08;14.80;99.90
12926;DHT22;6529;50.566;9.774;2022-08-21T05:16:34;14.80;99.90
12926;DHT22;6529;50.566;9.774;2022-08-21T05:19:00;14.80;99.90
12926;DHT22;6529;50.566;9.774;2022-08-21T05:21:26;14.90;99.90
12926;DHT22;6529;50.566;9.774;2022-08-21T05:23:52;14.90;99.90
12926;DHT22;6529;50.566;9.774;2022-08-21T05:26:17;14.90;99.90
12926;DHT22;6529;50.566;9.774;2022-08-21T05:28:43;15.00;99.90
12926;DHT22;6529;50.566;9.774;2022-08-21T05:31:08;15.00;99.90
12926;DHT22;6529;50.566;9.774;2022-08-21T05:33:34;15.00;99.90
12926;DHT22;6529;50.566;9.774;2022-08-21T05:36:00;15.10;99.90
12926;DHT22;6529;50.566;9.774;2022-08-21T05:38:26;15.30;99.90
12926;DHT22;6529;50.566;9.774;2022-08-21T05:40:54;15.40;99.90
12926;DHT22;6529;50.566;9.774;2022-08-21T05:43:20;15.40;99.90
12926;DHT22;6529;50.566;9.774;2022-08-21T05:45:46;15.50;99.90
12926;DHT22;6529;50.566;9.774;2022-08-21T05:48:20;15.50;99.90
12926;DHT22;6529;50.566;9.774;2022-08-21T05:50:47;15.60;99.90
12926;DHT22;6529;50.566;9.774;2022-08-21T05:53:14;15.60;99.90
12926;DHT22;6529;50.566;9.774;2022-08-21T05:55:40;15.60;99.90
12926;DHT22;6529;50.566;9.774;2022-08-21T05:58:06;15.70;99.90
12926;DHT22;6529;50.566;9.774;2022-08-21T06:00:32;15.80;99.90
12926;DHT22;6529;50.566;9.774;2022-08-21T06:02:58;15.70;99.90
12926;DHT22;6529;50.566;9.774;2022-08-21T06:05:24;15.80;99.90
12926;DHT22;6529;50.566;9.774;2022-08-21T06:07:50;15.90;99.90
12926;DHT22;6529;50.566;9.774;2022-08-21T06:10:15;15.90;99.90
12926;DHT22;6529;50.566;9.774;2022-08-21T06:12:41;16.00;99.90
12926;DHT22;6529;50.566;9.774;2022-08-21T06:15:07;15.90;99.90
12926;DHT22;6529;50.566;9.774;2022-08-21T06:17:33;15.90;99.90
12926;DHT22;6529;50.566;9.774;2022-08-21T06:19:58;15.90;99.90
12926;DHT22;6529;50.566;9.774;2022-08-21T06:22:24;16.00;99.90
12926;DHT22;6529;50.566;9.774;2022-08-21T06:24:49;16.10;99.90
12926;DHT22;6529;50.566;9.774;2022-08-21T06:27:15;16.20;99.90
12926;DHT22;6529;50.566;9.774;2022-08-21T06:29:43;16.20;99.90
12926;DHT22;6529;50.566;9.774;2022-08-21T06:32:11;16.30;99.90
12926;DHT22;6529;50.566;9.774;2022-08-21T06:34:38;16.30;99.90
12926;DHT22;6529;50.566;9.774;2022-08-21T06:37:04;16.30;99.90
12926;DHT22;6529;50.566;9.774;2022-08-21T06:39:30;16.40;99.90
12926;DHT22;6529;50.566;9.774;2022-08-21T06:41:56;16.50;99.90
12926;DHT22;6529;50.566;9.774;2022-08-21T06:44:22;16.60;99.90
12926;DHT22;6529;50.566;9.774;2022-08-21T06:46:47;16.70;99.90
12926;DHT22;6529;50.566;9.774;2022-08-21T06:49:13;16.60;99.90
12926;DHT22;6529;50.566;9.774;2022-08-21T06:51:39;16.80;99.90
12926;DHT22;6529;50.566;9.774;2022-08-21T06:54:05;16.80;99.90
12926;DHT22;6529;50.566;9.774;2022-08-21T06:56:31;16.90;99.90
12926;DHT22;6529;50.566;9.774;2022-08-21T06:58:58;17.00;99.90
12926;DHT22;6529;50.566;9.774;2022-08-21T07:01:25;17.10;99.90
12926;DHT22;6529;50.566;9.774;2022-08-21T07:03:51;17.10;99.90
12926;DHT22;6529;50.566;9.774;2022-08-21T07:06:17;17.10;99.90
12926;DHT22;6529;50.566;9.774;2022-08-21T07:08:43;17.10;99.90
12926;DHT22;6529;50.566;9.774;2022-08-21T07:11:20;17.10;99.90
12926;DHT22;6529;50.566;9.774;2022-08-21T07:13:47;17.20;99.90
12926;DHT22;6529;50.566;9.774;2022-08-21T07:16:13;17.30;99.90
12926;DHT22;6529;50.566;9.774;2022-08-21T07:18:39;17.40;99.90
12926;DHT22;6529;50.566;9.774;2022-08-21T07:21:06;17.50;99.90
12926;DHT22;6529;50.566;9.774;2022-08-21T07:23:36;17.60;99.90
12926;DHT22;6529;50.566;9.774;2022-08-21T07:26:03;17.70;99.90
12926;DHT22;6529;50.566;9.774;2022-08-21T07:28:29;17.80;99.90
12926;DHT22;6529;50.566;9.774;2022-08-21T07:30:57;17.80;99.90
12926;DHT22;6529;50.566;9.774;2022-08-21T07:33:25;17.80;99.90
12926;DHT22;6529;50.566;9.774;2022-08-21T07:35:50;17.90;99.90
12926;DHT22;6529;50.566;9.774;2022-08-21T07:38:16;18.00;99.90
12926;DHT22;6529;50.566;9.774;2022-08-21T07:40:43;18.10;99.90
12926;DHT22;6529;50.566;9.774;2022-08-21T07:43:09;18.10;99.90
12926;DHT22;6529;50.566;9.774;2022-08-21T07:45:35;18.20;99.90
12926;DHT22;6529;50.566;9.774;2022-08-21T07:48:00;18.20;99.90
12926;DHT22;6529;50.566;9.774;2022-08-21T07:50:26;18.30;99.90
12926;DHT22;6529;50.566;9.774;2022-08-21T07:52:51;18.50;99.90
12926;DHT22;6529;50.566;9.774;2022-08-21T07:55:22;18.50;99.90
12926;DHT22;6529;50.566;9.774;2022-08-21T07:57:49;18.60;99.90
12926;DHT22;6529;50.566;9.774;2022-08-21T08:00:18;18.80;99.90
12926;DHT22;6529;50.566;9.774;2022-08-21T08:02:46;19.00;99.90
12926;DHT22;6529;50.566;9.774;2022-08-21T08:05:15;19.10;99.90
12926;DHT22;6529;50.566;9.774;2022-08-21T08:07:41;19.20;99.90
12926;DHT22;6529;50.566;9.774;2022-08-21T08:10:08;19.40;99.90
12926;DHT22;6529;50.566;9.774;2022-08-21T08:12:35;19.50;99.90
12926;DHT22;6529;50.566;9.774;2022-08-21T08:15:01;19.60;99.90
12926;DHT22;6529;50.566;9.774;2022-08-21T08:17:27;19.80;99.90
12926;DHT22;6529;50.566;9.774;2022-08-21T08:19:53;19.90;99.90
12926;DHT22;6529;50.566;9.774;2022-08-21T08:22:21;20.10;99.90
12926;DHT22;6529;50.566;9.774;2022-08-21T08:24:49;20.30;99.90
12926;DHT22;6529;50.566;9.774;2022-08-21T08:27:15;20.30;99.90
12926;DHT22;6529;50.566;9.774;2022-08-21T08:29:41;20.40;99.90
12926;DHT22;6529;50.566;9.774;2022-08-21T08:32:07;20.50;99.90
12926;DHT22;6529;50.566;9.774;2022-08-21T08:34:37;20.70;99.90
12926;DHT22;6529;50.566;9.774;2022-08-21T08:37:05;20.80;99.90
12926;DHT22;6529;50.566;9.774;2022-08-21T08:39:30;21.00;99.90
12926;DHT22;6529;50.566;9.774;2022-08-21T08:44:30;21.20;99.90
12926;DHT22;6529;50.566;9.774;2022-08-21T08:46:57;21.40;99.90
12926;DHT22;6529;50.566;9.774;2022-08-21T08:49:50;21.50;99.90
12926;DHT22;6529;50.566;9.774;2022-08-21T08:52:31;21.70;99.90
12926;DHT22;6529;50.566;9.774;2022-08-21T08:55:12;21.80;99.90
12926;DHT22;6529;50.566;9.774;2022-08-21T08:57:43;21.90;99.90
12926;DHT22;6529;50.566;9.774;2022-08-21T09:00:11;22.10;99.90
12926;DHT22;6529;50.566;9.774;2022-08-21T09:02:42;22.20;99.90
12926;DHT22;6529;50.566;9.774;2022-08-21T09:05:24;22.40;99.90
12926;DHT22;6529;50.566;9.774;2022-08-21T09:10:38;22.70;99.90
12926;DHT22;6529;50.566;9.774;2022-08-21T09:19:39;22.70;99.90
12926;DHT22;6529;50.566;9.774;2022-08-21T09:22:17;22.80;99.90
12926;DHT22;6529;50.566;9.774;2022-08-21T09:24:50;22.80;99.90
12926;DHT22;6529;50.566;9.774;2022-08-21T09:27:19;22.90;99.90
12926;DHT22;6529;50.566;9.774;2022-08-21T09:29:49;22.90;99.90
12926;DHT22;6529;50.566;9.774;2022-08-21T09:34:59;23.40;99.90
12926;DHT22;6529;50.566;9.774;2022-08-21T09:37:27;23.40;99.90
12926;DHT22;6529;50.566;9.774;2022-08-21T09:39:58;23.70;99.90
12926;DHT22;6529;50.566;9.774;2022-08-21T09:42:32;23.70;99.90
12926;DHT22;6529;50.566;9.774;2022-08-21T09:45:12;23.90;99.90
12926;DHT22;6529;50.566;9.774;2022-08-21T09:47:39;24.30;99.90
12926;DHT22;6529;50.566;9.774;2022-08-21T09:50:24;24.40;99.90
12926;DHT22;6529;50.566;9.774;2022-08-21T09:52:54;24.50;99.90
12926;DHT22;6529;50.566;9.774;2022-08-21T09:55:34;24.10;99.90
12926;DHT22;6529;50.566;9.774;2022-08-21T09:58:30;23.60;99.90
12926;DHT22;6529;50.566;9.774;2022-08-21T10:00:59;23.70;99.90
12926;DHT22;6529;50.566;9.774;2022-08-21T10:03:26;24.10;99.90
12926;DHT22;6529;50.566;9.774;2022-08-21T10:06:03;24.50;99.90
12926;DHT22;6529;50.566;9.774;2022-08-21T10:08:31;24.50;99.90
12926;DHT22;6529;50.566;9.774;2022-08-21T10:11:13;24.40;99.90
12926;DHT22;6529;50.566;9.774;2022-08-21T10:19:33;25.40;99.90
12926;DHT22;6529;50.566;9.774;2022-08-21T10:36:12;26.30;97.40
12926;DHT22;6529;50.566;9.774;2022-08-21T10:38:48;26.30;99.00
12926;DHT22;6529;50.566;9.774;2022-08-21T10:41:37;26.20;98.80
12926;DHT22;6529;50.566;9.774;2022-08-21T10:52:21;25.10;99.90
12926;DHT22;6529;50.566;9.774;2022-08-21T10:55:20;25.20;99.90
12926;DHT22;6529;50.566;9.774;2022-08-21T10:58:04;25.70;96.70
12926;DHT22;6529;50.566;9.774;2022-08-21T11:00:51;25.90;99.80
12926;DHT22;6529;50.566;9.774;2022-08-21T11:06:05;26.80;96.80
12926;DHT22;6529;50.566;9.774;2022-08-21T11:08:38;27.30;94.30
12926;DHT22;6529;50.566;9.774;2022-08-21T11:11:10;27.40;92.70
12926;DHT22;6529;50.566;9.774;2022-08-21T11:13:47;27.20;93.50
12926;DHT22;6529;50.566;9.774;2022-08-21T11:16:36;27.30;92.70
12926;DHT22;6529;50.566;9.774;2022-08-21T11:19:12;27.40;92.00
12926;DHT22;6529;50.566;9.774;2022-08-21T11:22:00;27.30;91.40
12926;DHT22;6529;50.566;9.774;2022-08-21T11:29:48;27.80;90.60
12926;DHT22;6529;50.566;9.774;2022-08-21T11:32:31;28.00;90.20
12926;DHT22;6529;50.566;9.774;2022-08-21T11:37:53;28.50;83.70
12926;DHT22;6529;50.566;9.774;2022-08-21T11:40:44;28.60;83.20
12926;DHT22;6529;50.566;9.774;2022-08-21T11:43:47;28.30;86.10
12926;DHT22;6529;50.566;9.774;2022-08-21T11:46:48;27.80;85.00
12926;DHT22;6529;50.566;9.774;2022-08-21T11:54:55;26.10;88.40
12926;DHT22;6529;50.566;9.774;2022-08-21T12:00:08;26.50;89.50
12926;DHT22;6529;50.566;9.774;2022-08-21T12:02:41;26.40;88.10
12926;DHT22;6529;50.566;9.774;2022-08-21T12:05:10;26.40;89.40
12926;DHT22;6529;50.566;9.774;2022-08-21T12:07:39;26.90;85.70
12926;DHT22;6529;50.566;9.774;2022-08-21T12:10:11;27.30;79.70
12926;DHT22;6529;50.566;9.774;2022-08-21T12:12:39;27.60;73.60
12926;DHT22;6529;50.566;9.774;2022-08-21T12:18:03;27.80;72.60
12926;DHT22;6529;50.566;9.774;2022-08-21T12:21:16;27.90;71.30
12926;DHT22;6529;50.566;9.774;2022-08-21T12:23:49;28.20;72.70
12926;DHT22;6529;50.566;9.774;2022-08-21T12:26:24;28.60;69.10
12926;DHT22;6529;50.566;9.774;2022-08-21T12:28:50;29.00;69.80
12926;DHT22;6529;50.566;9.774;2022-08-21T12:31:24;29.00;66.50
12926;DHT22;6529;50.566;9.774;2022-08-21T12:33:55;28.80;64.90
12926;DHT22;6529;50.566;9.774;2022-08-21T12:36:25;28.90;67.30
12926;DHT22;6529;50.566;9.774;2022-08-21T12:38:59;28.90;65.70
12926;DHT22;6529;50.566;9.774;2022-08-21T12:41:41;28.00;64.20
12926;DHT22;6529;50.566;9.774;2022-08-21T12:44:14;27.50;68.20
12926;DHT22;6529;50.566;9.774;2022-08-21T12:46:48;27.50;72.10
12926;DHT22;6529;50.566;9.774;2022-08-21T12:49:18;27.40;67.80
12926;DHT22;6529;50.566;9.774;2022-08-21T12:54:38;26.90;70.90
12926;DHT22;6529;50.566;9.774;2022-08-21T12:57:06;26.60;74.30
12926;DHT22;6529;50.566;9.774;2022-08-21T12:59:36;26.50;78.90
12926;DHT22;6529;50.566;9.774;2022-08-21T13:02:05;26.40;75.30
12926;DHT22;6529;50.566;9.774;2022-08-21T13:04:39;26.30;75.30
12926;DHT22;6529;50.566;9.774;2022-08-21T13:07:11;26.30;80.70
12926;DHT22;6529;50.566;9.774;2022-08-21T13:12:43;26.30;87.60
12926;DHT22;6529;50.566;9.774;2022-08-21T13:15:11;27.10;88.10
12926;DHT22;6529;50.566;9.774;2022-08-21T13:17:41;27.90;78.70
12926;DHT22;6529;50.566;9.774;2022-08-21T13:20:24;28.60;69.00
12926;DHT22;6529;50.566;9.774;2022-08-21T13:22:50;29.30;73.20
12926;DHT22;6529;50.566;9.774;2022-08-21T13:25:18;29.80;65.70
12926;DHT22;6529;50.566;9.774;2022-08-21T13:27:58;30.00;60.10
12926;DHT22;6529;50.566;9.774;2022-08-21T13:30:24;30.10;60.00
12926;DHT22;6529;50.566;9.774;2022-08-21T13:32:55;29.50;56.90
12926;DHT22;6529;50.566;9.774;2022-08-21T13:35:26;29.20;59.00
12926;DHT22;6529;50.566;9.774;2022-08-21T13:37:54;28.60;59.90
12926;DHT22;6529;50.566;9.774;2022-08-21T13:40:37;28.30;58.60
12926;DHT22;6529;50.566;9.774;2022-08-21T13:43:14;27.90;59.60
12926;DHT22;6529;50.566;9.774;2022-08-21T13:45:44;27.60;61.30
12926;DHT22;6529;50.566;9.774;2022-08-21T13:48:12;27.20;61.60
12926;DHT22;6529;50.566;9.774;2022-08-21T13:50:38;27.00;62.30
12926;DHT22;6529;50.566;9.774;2022-08-21T13:53:06;27.50;62.40
12926;DHT22;6529;50.566;9.774;2022-08-21T13:55:43;28.20;62.80
12926;DHT22;6529;50.566;9.774;2022-08-21T13:58:10;28.70;58.70
12926;DHT22;6529;50.566;9.774;2022-08-21T14:00:48;28.10;57.20
12926;DHT22;6529;50.566;9.774;2022-08-21T14:03:33;27.90;64.50
12926;DHT22;6529;50.566;9.774;2022-08-21T14:05:59;28.10;61.00
12926;DHT22;6529;50.566;9.774;2022-08-21T14:08:35;28.70;61.30
12926;DHT22;6529;50.566;9.774;2022-08-21T14:11:04;29.40;57.70
12926;DHT22;6529;50.566;9.774;2022-08-21T14:14:16;29.70;57.80
12926;DHT22;6529;50.566;9.774;2022-08-21T14:16:29;30.20;58.10
12926;DHT22;6529;50.566;9.774;2022-08-21T14:21:36;29.90;55.40
12926;DHT22;6529;50.566;9.774;2022-08-21T14:24:08;30.30;56.00
12926;DHT22;6529;50.566;9.774;2022-08-21T14:26:37;30.70;54.30
12926;DHT22;6529;50.566;9.774;2022-08-21T14:29:07;30.60;51.70
12926;DHT22;6529;50.566;9.774;2022-08-21T14:31:33;31.00;51.00
12926;DHT22;6529;50.566;9.774;2022-08-21T14:34:00;31.50;51.70
12926;DHT22;6529;50.566;9.774;2022-08-21T14:36:26;31.70;50.30
12926;DHT22;6529;50.566;9.774;2022-08-21T14:38:52;32.10;47.70
12926;DHT22;6529;50.566;9.774;2022-08-21T14:41:21;31.90;46.40
12926;DHT22;6529;50.566;9.774;2022-08-21T14:43:48;31.50;46.80
12926;DHT22;6529;50.566;9.774;2022-08-21T14:46:20;31.10;48.30
12926;DHT22;6529;50.566;9.774;2022-08-21T14:48:46;30.90;49.70
12926;DHT22;6529;50.566;9.774;2022-08-21T14:51:13;30.10;48.20
12926;DHT22;6529;50.566;9.774;2022-08-21T14:53:39;29.50;49.80
12926;DHT22;6529;50.566;9.774;2022-08-21T14:56:05;29.00;51.10
12926;DHT22;6529;50.566;9.774;2022-08-21T14:58:37;29.40;53.20
12926;DHT22;6529;50.566;9.774;2022-08-21T15:01:05;29.90;50.90
12926;DHT22;6529;50.566;9.774;2022-08-21T15:03:32;30.60;52.10
12926;DHT22;6529;50.566;9.774;2022-08-21T15:05:58;30.90;50.00
12926;DHT22;6529;50.566;9.774;2022-08-21T15:08:24;31.20;47.60
12926;DHT22;6529;50.566;9.774;2022-08-21T15:10:51;31.00;46.70
12926;DHT22;6529;50.566;9.774;2022-08-21T15:13:18;31.00;48.30
12926;DHT22;6529;50.566;9.774;2022-08-21T15:15:45;31.40;48.90
12926;DHT22;6529;50.566;9.774;2022-08-21T15:18:13;31.30;46.20
12926;DHT22;6529;50.566;9.774;2022-08-21T15:20:39;31.20;47.00
12926;DHT22;6529;50.566;9.774;2022-08-21T15:23:06;30.80;45.40
12926;DHT22;6529;50.566;9.774;2022-08-21T15:25:32;30.60;46.50
12926;DHT22;6529;50.566;9.774;2022-08-21T15:27:58;30.80;48.20
12926;DHT22;6529;50.566;9.774;2022-08-21T15:30:25;31.20;45.70
12926;DHT22;6529;50.566;9.774;2022-08-21T15:32:50;31.10;44.90
12926;DHT22;6529;50.566;9.774;2022-08-21T15:35:16;30.90;44.10
12926;DHT22;6529;50.566;9.774;2022-08-21T15:37:42;31.00;45.90
12926;DHT22;6529;50.566;9.774;2022-08-21T15:40:08;31.10;44.40
12926;DHT22;6529;50.566;9.774;2022-08-21T15:42:34;31.40;43.80
12926;DHT22;6529;50.566;9.774;2022-08-21T15:45:00;31.20;42.80
12926;DHT22;6529;50.566;9.774;2022-08-21T15:47:30;31.40;43.60
12926;DHT22;6529;50.566;9.774;2022-08-21T15:49:56;31.60;44.10
12926;DHT22;6529;50.566;9.774;2022-08-21T15:52:22;31.30;40.70
12926;DHT22;6529;50.566;9.774;2022-08-21T15:54:49;30.90;42.20
12926;DHT22;6529;50.566;9.774;2022-08-21T15:57:18;30.80;40.90
12926;DHT22;6529;50.566;9.774;2022-08-21T15:59:51;30.50;43.20
12926;DHT22;6529;50.566;9.774;2022-08-21T16:02:32;30.40;44.20
12926;DHT22;6529;50.566;9.774;2022-08-21T16:04:58;30.80;42.30
12926;DHT22;6529;50.566;9.774;2022-08-21T16:07:24;31.00;42.60
12926;DHT22;6529;50.566;9.774;2022-08-21T16:09:50;31.10;42.20
12926;DHT22;6529;50.566;9.774;2022-08-21T16:12:21;30.10;40.60
12926;DHT22;6529;50.566;9.774;2022-08-21T16:14:48;29.90;42.00
12926;DHT22;6529;50.566;9.774;2022-08-21T16:17:15;29.80;43.50
12926;DHT22;6529;50.566;9.774;2022-08-21T16:19:41;29.60;42.10
12926;DHT22;6529;50.566;9.774;2022-08-21T16:22:07;29.10;42.20
12926;DHT22;6529;50.566;9.774;2022-08-21T16:24:33;29.20;43.70
12926;DHT22;6529;50.566;9.774;2022-08-21T16:26:58;29.40;42.70
12926;DHT22;6529;50.566;9.774;2022-08-21T16:29:29;29.90;41.90
12926;DHT22;6529;50.566;9.774;2022-08-21T16:31:57;29.50;40.50
12926;DHT22;6529;50.566;9.774;2022-08-21T16:34:23;29.80;41.90
12926;DHT22;6529;50.566;9.774;2022-08-21T16:36:49;29.70;42.70
12926;DHT22;6529;50.566;9.774;2022-08-21T16:39:14;29.80;43.60
12926;DHT22;6529;50.566;9.774;2022-08-21T16:41:40;29.90;43.30
12926;DHT22;6529;50.566;9.774;2022-08-21T16:44:06;29.50;41.60
12926;DHT22;6529;50.566;9.774;2022-08-21T16:46:36;29.30;41.30
12926;DHT22;6529;50.566;9.774;2022-08-21T16:49:03;29.20;43.00
12926;DHT22;6529;50.566;9.774;2022-08-21T16:51:28;29.00;41.30
12926;DHT22;6529;50.566;9.774;2022-08-21T16:53:56;28.90;42.90
12926;DHT22;6529;50.566;9.774;2022-08-21T16:56:22;28.80;41.70
12926;DHT22;6529;50.566;9.774;2022-08-21T16:58:49;28.70;43.10
12926;DHT22;6529;50.566;9.774;2022-08-21T17:01:17;28.80;43.10
12926;DHT22;6529;50.566;9.774;2022-08-21T17:03:46;28.70;42.90
12926;DHT22;6529;50.566;9.774;2022-08-21T17:06:13;28.90;42.90
12926;DHT22;6529;50.566;9.774;2022-08-21T17:08:39;28.90;41.90
12926;DHT22;6529;50.566;9.774;2022-08-21T17:11:07;28.70;43.20